KHYW

Details ICAO KHYW
Name Conway Horry Co
Region United States
Timezone America/New_York (UTC-5.0)
Plans Departing 2
Arriving 3
Stats Elevation 34 ft / 10 m (AMSL)
Location 33.828485° -79.122178°
Runways 1
Magnetic Variation 8.619° W
Sunrise 2017-12-11 12:12:58 UTC / 2017-12-11 07:12:58 Local
Sunset 2017-12-11 22:09:38 UTC / 2017-12-11 17:09:38 Local
Advertisement - Login to hide

Runways

ID Width Length Bearing (true) Bearing (mag) Surface Threshold Offset Overrun Length
04 75 ft / 23 m 4,407 ft / 1,343 m 31.70° 40.32° Asphalt 0 ft / 0 m 0 ft / 0 m
22 75 ft / 23 m 4,407 ft / 1,343 m 211.70° 220.32° Asphalt 0 ft / 0 m 0 ft / 0 m

Map

Weather


0- 5 10 15 20 25 30 35+ Temperature / ° C

Clouds and Precipitation
Forecast for 2017-12-11 18:00 UTC. Updated 19 minutes ago

Ground ~20,000 ft ~40,000 ft Winds

METAR

KHYW 111535Z AUTO 00000KT 7SM CLR 05/00 A3019 RMK AO2

TAF

Not found

Frequencies

Unicom 122.70 MHz CTAF/UNICOM
Approach 127.40 MHz MYRTLE BEACH APP/DEP
Warning: Do not use this data for real-world aviation or navigation. No guarantee of current accuracy is given.